Time;durP1;ratioP1;P1;durP2;ratioP2;P2;SDS_P1;SDS_P2;PMS_P1;PMS_P2;Temp;Humidity;BMP_temperature;BMP_pressure;BME280_temperature;BME280_humidity;BME280_pressure;Samples;Min_cycle;Max_cycle;Signal;HPM_P1;HPM_P2
2022/07/29 00:00:12;;;;;;;6.47;5.35;;;;;;;23.62;60.45;100496.00;5000300;28;20026;-63
2022/07/29 00:02:37;;;;;;;7.43;5.07;;;;;;;23.58;60.55;100490.31;5015743;28;20040;-63
2022/07/29 00:05:04;;;;;;;9.77;5.60;;;;;;;23.52;60.89;100495.72;5016359;28;20034;-64
2022/07/29 00:07:30;;;;;;;8.13;5.50;;;;;;;23.43;61.12;100495.22;5007049;28;20022;-63
2022/07/29 00:09:56;;;;;;;9.15;6.13;;;;;;;23.36;61.13;100505.13;5007488;28;20034;-64
2022/07/29 00:12:24;;;;;;;9.40;6.28;;;;;;;23.37;61.07;100498.78;5017734;28;20045;-62
2022/07/29 00:14:52;;;;;;;7.80;5.68;;;;;;;23.39;61.67;100497.53;5020396;28;20084;-63
2022/07/29 00:17:17;;;;;;;7.05;5.55;;;;;;;23.34;61.67;100500.06;5013716;28;20420;-63
2022/07/29 00:19:43;;;;;;;7.10;5.63;;;;;;;23.28;62.24;100489.50;5011931;28;20021;-63
2022/07/29 00:22:08;;;;;;;10.05;5.30;;;;;;;23.24;62.26;100491.00;5018500;28;20093;-64
2022/07/29 00:24:34;;;;;;;5.78;5.18;;;;;;;23.22;62.30;100491.22;5014610;28;20456;-63
2022/07/29 00:26:59;;;;;;;9.07;5.72;;;;;;;23.22;62.47;100483.25;5044058;28;20094;-63
2022/07/29 00:29:25;;;;;;;6.28;4.57;;;;;;;23.18;62.43;100487.41;5050337;28;20033;-63
2022/07/29 00:31:50;;;;;;;9.98;6.53;;;;;;;23.16;62.99;100478.84;5051270;28;20032;-63
2022/07/29 00:37:01;;;;;;;9.00;5.53;;;;;;;23.12;63.50;100475.84;5048214;28;20047;-63
2022/07/29 00:39:26;;;;;;;7.65;4.93;;;;;;;23.01;63.85;100479.28;5049468;28;20127;-63
2022/07/29 00:41:52;;;;;;;6.65;4.65;;;;;;;23.02;64.03;100474.78;5050169;28;20032;-63
2022/07/29 00:44:17;;;;;;;9.90;5.28;;;;;;;23.06;64.13;100475.94;5050591;28;20507;-63
2022/07/29 00:46:43;;;;;;;9.57;5.60;;;;;;;23.07;63.82;100472.25;5049861;28;20032;-63
2022/07/29 00:49:08;;;;;;;6.25;4.95;;;;;;;23.06;64.36;100470.63;5050960;28;20468;-63
2022/07/29 00:51:37;;;;;;;6.47;4.68;;;;;;;23.06;64.18;100462.66;5050653;28;20037;-63
2022/07/29 00:54:04;;;;;;;7.15;5.15;;;;;;;23.03;63.93;100465.78;5050264;28;20636;-63
2022/07/29 00:56:31;;;;;;;7.70;4.38;;;;;;;22.98;64.10;100470.94;5049894;28;20053;-63
2022/07/29 00:58:57;;;;;;;5.32;4.65;;;;;;;22.96;64.27;100468.50;5049135;28;20033;-64
2022/07/29 01:01:23;;;;;;;7.18;5.22;;;;;;;22.92;64.30;100459.38;5048639;28;20082;-63
2022/07/29 01:03:48;;;;;;;6.28;4.15;;;;;;;22.86;63.34;100464.78;5049503;28;20037;-63
2022/07/29 01:06:16;;;;;;;5.72;4.30;;;;;;;22.97;62.81;100450.72;5047826;28;20037;-63
2022/07/29 01:08:42;;;;;;;5.72;3.85;;;;;;;22.99;62.83;100451.31;5049506;28;20530;-63
2022/07/29 01:11:09;;;;;;;5.18;3.88;;;;;;;22.97;62.69;100445.41;5049432;28;20549;-62
2022/07/29 01:13:35;;;;;;;6.53;4.38;;;;;;;22.94;63.66;100440.56;5048955;28;20041;-63
2022/07/29 01:16:10;;;;;;;5.07;4.22;;;;;;;22.91;63.53;100435.69;5049563;28;20508;-63
2022/07/29 01:18:41;;;;;;;8.20;4.07;;;;;;;22.84;63.82;100439.25;5039441;28;20029;-62
2022/07/29 01:21:48;;;;;;;6.50;3.92;;;;;;;22.78;64.06;100437.47;5044165;28;20119;-62
2022/07/29 01:24:31;;;;;;;;;;;;;;;22.65;64.61;100437.66;5048021;28;20497;-63
2022/07/29 01:27:26;;;;;;;5.40;4.03;;;;;;;22.64;64.25;100440.53;5046279;28;20055;-63
2022/07/29 01:29:58;;;;;;;5.60;3.58;;;;;;;22.66;63.51;100433.16;5048435;28;20063;-62
2022/07/29 01:32:31;;;;;;;4.57;3.70;;;;;;;22.65;63.99;100432.34;5029135;28;20085;-63
2022/07/29 01:35:02;;;;;;;4.50;3.90;;;;;;;22.64;64.71;100430.72;5043517;28;20040;-62
2022/07/29 01:37:48;;;;;;;6.82;4.00;;;;;;;22.64;64.53;100436.03;5048021;28;20036;-62
2022/07/29 01:40:20;;;;;;;4.07;3.65;;;;;;;22.63;64.24;100429.09;5049828;28;20061;-63
2022/07/29 01:42:52;;;;;;;4.00;3.60;;;;;;;22.64;63.96;100429.91;5031876;28;20037;-63
2022/07/29 01:45:27;;;;;;;6.93;4.30;;;;;;;22.62;64.19;100432.78;5050691;28;20511;-62
2022/07/29 01:47:59;;;;;;;4.68;3.90;;;;;;;22.60;64.47;100437.50;5050405;28;20095;-63
2022/07/29 01:50:48;;;;;;;4.05;3.63;;;;;;;22.57;64.14;100430.00;5050366;28;20186;-63
2022/07/29 01:53:30;;;;;;;4.97;3.70;;;;;;;22.56;64.50;100432.88;5041737;28;20098;-62
2022/07/29 01:55:59;;;;;;;4.00;3.60;;;;;;;22.50;64.98;100430.06;5049392;28;20037;-63
2022/07/29 01:58:28;;;;;;;6.07;3.78;;;;;;;22.51;64.79;100430.88;5049385;28;20033;-63
2022/07/29 02:00:55;;;;;;;5.40;3.38;;;;;;;22.50;65.22;100429.25;5044516;28;20060;-62
2022/07/29 02:03:22;;;;;;;6.25;3.78;;;;;;;22.45;65.00;100429.91;5046923;28;20035;-62
2022/07/29 02:05:50;;;;;;;6.28;3.67;;;;;;;22.45;64.95;100431.75;5047980;28;20029;-62
2022/07/29 02:08:18;;;;;;;4.40;3.45;;;;;;;22.42;65.42;100429.56;5047855;28;20027;-62
2022/07/29 02:10:45;;;;;;;6.05;3.33;;;;;;;22.38;65.25;100434.50;5046935;28;20037;-62
2022/07/29 02:13:12;;;;;;;4.57;3.50;;;;;;;22.32;65.72;100438.03;5047263;28;20415;-63
2022/07/29 02:15:41;;;;;;;8.52;3.58;;;;;;;22.31;65.81;100436.41;5046808;28;20025;-62
2022/07/29 02:18:17;;;;;;;4.82;3.47;;;;;;;22.32;65.86;100435.38;5048214;28;20025;-62
2022/07/29 02:20:46;;;;;;;3.97;3.35;;;;;;;22.34;65.94;100437.81;5029855;28;20429;-62
2022/07/29 02:23:16;;;;;;;5.45;3.58;;;;;;;22.35;65.23;100428.81;5048436;28;20509;-62
2022/07/29 02:25:42;;;;;;;5.88;3.28;;;;;;;22.34;65.42;100422.69;5048232;28;20559;-62
2022/07/29 02:28:08;;;;;;;4.30;3.90;;;;;;;22.29;65.61;100427.06;5031034;28;20389;-63
2022/07/29 02:30:41;;;;;;;5.00;3.70;;;;;;;22.22;65.64;100423.66;5049088;28;20032;-62
2022/07/29 02:33:09;;;;;;;6.43;3.65;;;;;;;22.22;65.77;100421.81;5047256;28;20086;-63
2022/07/29 02:35:35;;;;;;;3.60;3.08;;;;;;;22.22;65.95;100415.69;5048109;28;20032;-62
2022/07/29 02:40:50;;;;;;;3.60;3.00;;;;;;;22.26;65.63;100422.19;5047828;28;20388;-63
2022/07/29 02:43:19;;;;;;;5.70;3.78;;;;;;;22.28;66.45;100420.13;5047442;28;20052;-63
2022/07/29 02:45:47;;;;;;;7.30;3.85;;;;;;;22.27;66.29;100418.50;5048391;28;20028;-63
2022/07/29 02:48:16;;;;;;;4.50;3.65;;;;;;;22.29;66.10;100413.78;5048639;28;20078;-63
2022/07/29 02:50:57;;;;;;;5.10;3.40;;;;;;;22.27;66.07;100415.84;5025113;28;20041;-62
2022/07/29 02:53:24;;;;;;;4.47;3.45;;;;;;;22.29;65.81;100416.44;5045835;28;20086;-63
2022/07/29 02:56:01;;;;;;;3.53;3.22;;;;;;;22.36;66.13;100425.13;5046904;28;20120;-62
2022/07/29 02:59:00;;;;;;;3.78;3.13;;;;;;;22.33;65.89;100434.34;5048353;28;20501;-63
2022/07/29 03:01:31;;;;;;;4.68;3.92;;;;;;;22.33;66.08;100422.94;5048240;28;20045;-64
2022/07/29 03:04:00;;;;;;;4.60;3.67;;;;;;;22.36;66.22;100433.09;5040131;28;20029;-62
2022/07/29 03:06:28;;;;;;;4.28;3.53;;;;;;;22.34;66.14;100435.16;5044054;28;20021;-63
2022/07/29 03:08:55;;;;;;;4.05;3.05;;;;;;;22.29;66.26;100435.00;5021146;28;20025;-63
2022/07/29 03:11:21;;;;;;;4.93;3.42;;;;;;;22.23;66.21;100439.38;5047909;28;20043;-63
2022/07/29 03:13:48;;;;;;;5.72;3.03;;;;;;;22.17;66.65;100442.94;5037586;28;20040;-63
2022/07/29 03:16:15;;;;;;;5.18;3.75;;;;;;;22.13;67.12;100445.22;5040535;28;20480;-63
2022/07/29 03:18:41;;;;;;;4.18;3.75;;;;;;;22.08;67.12;100445.06;5047257;28;20027;-64
2022/07/29 03:21:08;;;;;;;3.58;3.20;;;;;;;22.04;66.91;100448.38;5039917;28;20032;-63
2022/07/29 03:23:33;;;;;;;4.53;3.72;;;;;;;22.04;67.26;100446.53;5047958;28;20560;-63
2022/07/29 03:25:59;;;;;;;6.68;3.30;;;;;;;22.03;66.71;100439.59;5046714;28;20136;-63
2022/07/29 03:28:27;;;;;;;7.95;3.00;;;;;;;22.11;65.27;100426.03;5036733;28;20025;-64
2022/07/29 03:30:53;;;;;;;6.32;3.38;;;;;;;22.14;65.10;100383.16;5029732;28;20095;-63
2022/07/29 03:33:18;;;;;;;3.67;3.00;;;;;;;22.22;64.56;100352.81;5048033;28;20568;-63
2022/07/29 03:35:44;;;;;;;4.82;2.22;;;;;;;22.52;62.56;100336.94;5029528;28;20182;-64
2022/07/29 03:38:09;;;;;;;2.50;1.70;;;;;;;22.88;61.00;100329.88;5047147;28;20481;-64
2022/07/29 03:40:44;;;;;;;5.35;2.10;;;;;;;23.11;60.04;100320.09;5045563;28;20044;-64
2022/07/29 03:43:11;;;;;;;2.03;1.45;;;;;;;23.28;59.42;100309.56;5028952;28;20472;-63
2022/07/29 03:45:38;;;;;;;1.95;1.75;;;;;;;23.36;58.99;100311.88;5048415;28;20536;-63
2022/07/29 03:48:10;;;;;;;3.72;1.90;;;;;;;23.39;59.55;100319.41;5046758;28;20032;-64
2022/07/29 03:50:36;;;;;;;3.08;1.67;;;;;;;23.37;60.45;100318.81;5046672;28;20114;-63
2022/07/29 03:53:02;;;;;;;2.33;1.60;;;;;;;23.26;61.44;100330.25;5045872;28;20496;-63
2022/07/29 03:55:32;;;;;;;2.08;1.88;;;;;;;23.20;61.92;100346.31;5047060;28;20065;-64
2022/07/29 03:57:59;;;;;;;4.45;2.35;;;;;;;23.17;62.30;100347.59;5046994;28;20058;-63
2022/07/29 04:00:27;;;;;;;3.35;1.42;;;;;;;23.20;61.48;100341.81;5048291;28;20036;-64
2022/07/29 04:02:52;;;;;;;3.28;2.10;;;;;;;23.25;61.24;100333.16;5046374;28;20186;-64
2022/07/29 04:05:18;;;;;;;3.10;1.90;;;;;;;23.30;61.68;100331.41;5047635;28;20361;-63
2022/07/29 04:07:46;;;;;;;2.03;1.30;;;;;;;23.30;61.43;100331.41;5045833;28;20532;-64
2022/07/29 04:10:12;;;;;;;2.10;1.75;;;;;;;23.28;60.98;100333.50;5033200;28;20378;-63
2022/07/29 04:12:37;;;;;;;2.17;1.98;;;;;;;23.26;61.54;100338.22;5045547;28;20041;-63
2022/07/29 04:15:04;;;;;;;3.28;1.95;;;;;;;23.23;61.57;100349.31;5046047;28;20033;-63
2022/07/29 04:17:30;;;;;;;3.25;2.00;;;;;;;23.21;61.57;100355.91;5046079;28;20032;-64
2022/07/29 04:19:55;;;;;;;3.58;1.80;;;;;;;23.21;62.01;100364.69;5047013;28;20051;-63
2022/07/29 04:22:21;;;;;;;2.35;1.73;;;;;;;23.22;61.73;100368.16;5047569;28;20146;-63
2022/07/29 04:24:46;;;;;;;3.88;1.92;;;;;;;23.21;61.93;100380.63;5047168;28;20404;-63
2022/07/29 04:27:12;;;;;;;2.47;1.77;;;;;;;23.23;61.79;100386.53;5045185;28;20044;-64
2022/07/29 04:29:38;;;;;;;2.47;1.83;;;;;;;23.28;60.74;100399.94;5046410;28;20045;-63
2022/07/29 04:32:03;;;;;;;3.35;2.15;;;;;;;23.36;60.54;100412.91;5047098;28;20032;-64
2022/07/29 04:34:29;;;;;;;3.78;1.85;;;;;;;23.32;61.26;100417.06;5030819;28;20037;-63
2022/07/29 04:36:55;;;;;;;4.68;2.20;;;;;;;23.31;62.03;100409.31;5046166;28;20067;-65
2022/07/29 04:39:20;;;;;;;6.82;2.60;;;;;;;23.27;62.14;100416.94;5035681;28;20041;-64
2022/07/29 04:41:47;;;;;;;4.97;2.40;;;;;;;23.28;62.32;100421.22;5046663;28;20041;-64
2022/07/29 04:44:12;;;;;;;6.10;3.35;;;;;;;23.27;62.32;100419.59;5028887;28;20083;-64
2022/07/29 04:46:38;;;;;;;4.50;2.58;;;;;;;23.23;61.77;100413.13;5046503;28;20461;-64
2022/07/29 04:49:04;;;;;;;6.65;2.38;;;;;;;23.24;61.26;100417.38;5045177;28;20524;-64
2022/07/29 04:51:30;;;;;;;3.38;2.00;;;;;;;23.29;61.22;100427.34;5048188;28;20108;-63
2022/07/29 04:53:55;;;;;;;7.82;2.83;;;;;;;23.32;61.62;100430.34;5047016;28;20041;-63
2022/07/29 04:56:21;;;;;;;3.15;2.35;;;;;;;23.29;61.90;100430.00;5047003;28;20037;-64
2022/07/29 04:58:46;;;;;;;3.10;2.72;;;;;;;23.20;61.06;100429.50;5044754;28;20439;-64
2022/07/29 05:01:12;;;;;;;4.75;1.98;;;;;;;23.23;60.52;100433.56;5046728;28;20025;-64
2022/07/29 05:03:37;;;;;;;4.65;2.33;;;;;;;23.32;59.45;100430.34;5045068;28;20485;-64
2022/07/29 05:06:03;;;;;;;7.70;2.83;;;;;;;23.55;58.93;100436.78;5047620;28;20024;-64
2022/07/29 05:08:28;;;;;;;4.95;2.45;;;;;;;23.68;58.44;100436.53;5045086;28;20029;-64
2022/07/29 05:10:54;;;;;;;5.90;2.80;;;;;;;23.77;58.04;100440.47;5046889;28;20393;-64
2022/07/29 05:13:19;;;;;;;3.92;2.17;;;;;;;23.79;57.63;100439.19;5038839;28;20477;-64
2022/07/29 05:15:45;;;;;;;3.38;2.45;;;;;;;23.82;57.42;100441.41;5051326;28;20477;-64
2022/07/29 05:18:10;;;;;;;2.88;1.67;;;;;;;23.83;57.96;100434.22;5050599;28;20121;-64
2022/07/29 05:20:36;;;;;;;2.22;1.83;;;;;;;23.86;57.09;100433.75;5048477;28;20021;-64
2022/07/29 05:23:02;;;;;;;4.70;2.60;;;;;;;24.02;57.42;100438.38;5030849;28;20036;-64
2022/07/29 05:25:28;;;;;;;3.55;1.73;;;;;;;24.25;56.63;100437.56;5049809;28;20491;-64
2022/07/29 05:27:55;;;;;;;3.85;2.38;;;;;;;24.39;55.40;100440.78;5030668;28;20520;-65
2022/07/29 05:30:20;;;;;;;6.38;1.90;;;;;;;24.58;54.44;100439.53;5034588;28;20079;-64
2022/07/29 05:32:46;;;;;;;4.32;2.15;;;;;;;24.70;54.41;100445.63;5036602;28;20519;-64
2022/07/29 05:35:13;;;;;;;7.40;1.75;;;;;;;24.84;53.87;100446.16;5030911;28;20049;-64
2022/07/29 05:37:39;;;;;;;4.78;1.50;;;;;;;25.02;53.43;100445.19;5044414;28;20021;-65
2022/07/29 05:40:06;;;;;;;5.25;1.90;;;;;;;25.08;53.30;100446.88;5041546;28;20520;-63
2022/07/29 05:42:32;;;;;;;9.73;1.80;;;;;;;24.98;53.35;100444.06;5051173;28;20339;-63
2022/07/29 05:44:58;;;;;;;5.28;1.75;;;;;;;24.93;53.82;100443.94;5050712;28;20495;-64
2022/07/29 05:47:24;;;;;;;6.82;2.03;;;;;;;24.89;54.19;100448.09;5049987;28;20036;-64
2022/07/29 05:49:50;;;;;;;7.47;2.10;;;;;;;24.86;54.02;100449.41;5049646;28;20021;-64
2022/07/29 05:52:16;;;;;;;3.53;1.50;;;;;;;24.87;53.96;100444.88;5050781;28;20153;-64
2022/07/29 05:54:42;;;;;;;6.50;2.05;;;;;;;25.02;53.85;100451.31;5046895;28;20362;-64
2022/07/29 05:57:08;;;;;;;3.92;2.00;;;;;;;24.98;53.85;100457.38;5048659;28;20052;-63
2022/07/29 05:59:37;;;;;;;3.22;1.42;;;;;;;25.06;53.64;100454.28;5048276;28;20033;-63
2022/07/29 06:02:04;;;;;;;7.45;1.92;;;;;;;25.13;53.13;100452.28;5049507;28;20437;-64
2022/07/29 06:04:31;;;;;;;7.43;1.80;;;;;;;25.17;53.15;100460.63;5031245;28;20495;-63
2022/07/29 06:06:57;;;;;;;5.55;1.50;;;;;;;25.09;52.73;100456.47;5049191;28;20079;-64
2022/07/29 06:09:22;;;;;;;2.97;1.75;;;;;;;25.09;52.87;100459.16;5031946;28;20053;-63
2022/07/29 06:11:48;;;;;;;2.63;1.63;;;;;;;25.21;52.39;100465.22;5050601;28;20100;-62
2022/07/29 06:14:14;;;;;;;2.80;1.63;;;;;;;25.42;51.74;100464.53;5041963;28;20025;-61
2022/07/29 06:16:39;;;;;;;4.35;1.52;;;;;;;25.50;51.48;100473.19;5046653;28;20211;-62
2022/07/29 06:19:05;;;;;;;5.10;1.88;;;;;;;25.63;51.35;100470.16;5030721;28;20087;-62
2022/07/29 06:21:31;;;;;;;3.15;1.83;;;;;;;25.76;50.98;100465.34;5049085;28;20021;-62
2022/07/29 06:23:56;;;;;;;3.38;1.20;;;;;;;25.92;50.93;100471.72;5049283;28;20035;-62
2022/07/29 06:26:22;;;;;;;5.07;1.40;;;;;;;26.11;50.49;100478.38;5047131;28;20501;-62
2022/07/29 06:28:48;;;;;;;4.38;1.50;;;;;;;26.23;49.86;100485.47;5036695;28;20033;-62
2022/07/29 06:31:14;;;;;;;4.03;1.40;;;;;;;26.30;49.45;100480.75;5040831;28;20369;-62
2022/07/29 06:33:39;;;;;;;3.45;1.60;;;;;;;26.43;49.39;100481.25;5048859;28;20535;-62
2022/07/29 06:36:05;;;;;;;4.50;1.38;;;;;;;26.54;48.79;100484.00;5048913;28;20041;-62
2022/07/29 06:38:32;;;;;;;3.40;1.40;;;;;;;26.69;48.59;100478.84;5047922;28;20036;-62
2022/07/29 06:41:01;;;;;;;2.95;1.13;;;;;;;26.97;47.85;100485.84;5048119;28;20047;-62
2022/07/29 06:43:33;;;;;;;5.22;1.55;;;;;;;27.32;46.99;100483.53;5049761;28;20037;-62
2022/07/29 06:46:04;;;;;;;3.45;2.55;;;;;;;27.31;46.59;100481.91;5047645;28;20074;-62
2022/07/29 06:48:29;;;;;;;2.85;1.70;;;;;;;27.40;47.13;100483.06;5047595;28;20047;-62
2022/07/29 06:50:55;;;;;;;1.70;1.40;;;;;;;27.49;46.76;100482.56;5047145;28;20034;-62
2022/07/29 06:53:21;;;;;;;5.85;1.65;;;;;;;27.74;46.58;100480.94;5047881;28;20044;-62
2022/07/29 06:55:47;;;;;;;3.53;1.70;;;;;;;28.06;46.16;100488.88;5046555;28;20033;-62
2022/07/29 06:58:13;;;;;;;5.80;1.63;;;;;;;28.34;45.59;100489.59;5048763;28;20376;-61
2022/07/29 07:00:39;;;;;;;2.63;1.10;;;;;;;28.64;44.48;100484.34;5043497;28;20044;-61
2022/07/29 07:03:05;;;;;;;3.85;1.17;;;;;;;28.79;44.15;100490.84;5048595;28;20045;-61
2022/07/29 07:05:30;;;;;;;4.43;1.30;;;;;;;28.65;44.30;100485.16;5048726;28;20385;-63
2022/07/29 07:07:55;;;;;;;3.33;1.17;;;;;;;28.35;44.81;100489.34;5049209;28;20032;-61
2022/07/29 07:10:21;;;;;;;4.60;1.60;;;;;;;28.42;44.59;100489.09;5047506;28;20040;-62
2022/07/29 07:12:46;;;;;;;4.25;1.13;;;;;;;28.44;44.21;100483.47;5029318;28;20065;-61
2022/07/29 07:15:12;;;;;;;1.88;1.10;;;;;;;28.50;44.17;100482.41;5046671;28;20106;-61
2022/07/29 07:17:37;;;;;;;2.97;1.45;;;;;;;28.53;44.36;100482.69;5039523;28;20028;-62
2022/07/29 07:20:05;;;;;;;4.00;1.30;;;;;;;28.65;45.11;100477.13;5038735;28;20033;-63
2022/07/29 07:22:31;;;;;;;3.92;1.33;;;;;;;28.81;44.94;100480.66;5038193;28;20024;-62
2022/07/29 07:24:57;;;;;;;3.72;1.30;;;;;;;28.89;44.55;100480.13;5040806;28;20138;-62
2022/07/29 07:27:23;;;;;;;1.90;1.20;;;;;;;28.91;44.22;100478.81;5041710;28;20083;-62
2022/07/29 07:29:48;;;;;;;2.03;1.08;;;;;;;28.85;43.67;100485.22;5048259;28;20044;-61
2022/07/29 07:32:15;;;;;;;4.40;1.33;;;;;;;28.69;43.77;100476.31;5047163;28;20040;-61
2022/07/29 07:34:42;;;;;;;4.40;1.10;;;;;;;28.80;43.32;100482.53;5041272;28;20032;-62
2022/07/29 07:37:08;;;;;;;4.00;1.50;;;;;;;28.59;43.43;100478.16;5046606;28;20028;-62
2022/07/29 07:39:34;;;;;;;2.85;0.85;;;;;;;28.45;43.12;100475.16;5045809;28;20033;-62
2022/07/29 07:42:00;;;;;;;3.08;1.13;;;;;;;28.49;43.03;100473.56;5048571;28;20036;-62
2022/07/29 07:44:25;;;;;;;3.22;1.48;;;;;;;28.67;43.08;100472.28;5045973;28;20028;-62
2022/07/29 07:46:51;;;;;;;1.98;1.00;;;;;;;28.90;42.80;100476.38;5048556;28;20086;-62
2022/07/29 07:49:16;;;;;;;6.28;1.50;;;;;;;29.25;42.71;100463.03;5045177;28;20028;-60
2022/07/29 07:51:41;;;;;;;2.55;1.40;;;;;;;29.63;41.78;100463.56;5046685;28;20523;-63
2022/07/29 07:54:07;;;;;;;4.13;1.58;;;;;;;29.72;41.04;100464.63;5046135;28;20138;-62
2022/07/29 07:56:33;;;;;;;2.45;1.10;;;;;;;29.58;40.85;100468.94;5047716;28;20220;-62
2022/07/29 07:58:58;;;;;;;1.63;1.02;;;;;;;29.75;40.49;100465.97;5045733;28;20024;-63
2022/07/29 08:01:23;;;;;;;3.42;1.15;;;;;;;30.00;40.48;100471.31;5047861;28;20044;-62
2022/07/29 08:03:49;;;;;;;1.65;1.35;;;;;;;30.17;40.50;100468.31;5046236;28;20115;-62
2022/07/29 08:06:15;;;;;;;1.75;1.17;;;;;;;30.26;39.61;100472.00;5044639;28;20111;-63
2022/07/29 08:08:41;;;;;;;3.33;1.30;;;;;;;30.51;39.40;100473.78;5048067;28;20024;-62
2022/07/29 08:11:06;;;;;;;3.15;0.95;;;;;;;30.73;38.98;100459.97;5046857;28;20119;-63
2022/07/29 08:13:33;;;;;;;3.55;1.15;;;;;;;30.96;39.28;100462.00;5046430;28;20443;-62
2022/07/29 08:16:10;;;;;;;3.75;1.17;;;;;;;31.14;38.05;100465.94;5046557;28;20044;-64
2022/07/29 08:18:36;;;;;;;3.63;1.30;;;;;;;30.81;38.66;100457.50;5041783;28;20128;-64
2022/07/29 08:21:01;;;;;;;1.92;1.38;;;;;;;31.14;38.26;100468.63;5044246;28;20128;-64
2022/07/29 08:23:34;;;;;;;3.13;1.15;;;;;;;31.31;37.51;100464.44;5043015;28;20018;-64
2022/07/29 08:26:00;;;;;;;5.30;1.90;;;;;;;31.60;37.72;100469.03;5056690;28;20098;-65
2022/07/29 08:28:26;;;;;;;4.15;1.85;;;;;;;31.75;36.62;100465.41;5044630;28;20025;-64
2022/07/29 08:30:51;;;;;;;3.92;1.33;;;;;;;31.78;36.33;100468.34;5045680;28;20032;-64
2022/07/29 08:33:17;;;;;;;1.92;1.25;;;;;;;31.74;36.22;100464.59;5046299;28;20441;-64
2022/07/29 08:35:43;;;;;;;5.57;1.42;;;;;;;31.78;35.98;100465.63;5045727;28;20029;-64
2022/07/29 08:38:09;;;;;;;3.08;1.13;;;;;;;31.98;35.66;100465.44;5045171;28;20539;-64
2022/07/29 08:40:35;;;;;;;3.08;1.45;;;;;;;31.62;35.31;100466.88;5042282;28;20024;-65
2022/07/29 08:43:05;;;;;;;1.52;1.33;;;;;;;31.55;35.32;100471.78;5041925;28;20211;-63
2022/07/29 08:45:45;;;;;;;1.75;1.10;;;;;;;32.05;35.20;100465.09;5018524;28;20028;-64
2022/07/29 08:48:15;;;;;;;1.30;1.20;;;;;;;32.33;35.36;100466.13;5041356;28;20869;-64
2022/07/29 08:50:42;;;;;;;2.85;1.42;;;;;;;32.51;34.27;100468.03;5022829;28;20041;-64
2022/07/29 08:53:11;;;;;;;2.20;1.08;;;;;;;32.42;34.27;100466.28;5051110;28;20045;-64
2022/07/29 08:55:40;;;;;;;1.30;1.17;;;;;;;32.56;33.95;100464.47;5039429;28;20136;-63
2022/07/29 08:58:07;;;;;;;1.50;1.08;;;;;;;32.47;33.42;100466.22;5039353;28;20369;-64
2022/07/29 09:00:35;;;;;;;4.35;1.40;;;;;;;32.43;33.91;100466.00;5030074;28;20425;-63
2022/07/29 09:03:02;;;;;;;3.30;1.00;;;;;;;31.89;34.16;100456.38;5046337;28;20025;-64
2022/07/29 09:05:28;;;;;;;1.92;1.00;;;;;;;31.57;34.13;100456.94;5047929;28;20256;-64
2022/07/29 09:07:54;;;;;;;1.77;1.10;;;;;;;31.47;34.38;100458.91;5049817;28;20033;-64
2022/07/29 09:10:20;;;;;;;5.97;1.45;;;;;;;31.07;34.50;100457.34;5050096;28;20254;-64
2022/07/29 09:12:46;;;;;;;2.45;1.27;;;;;;;31.27;35.05;100446.44;5046653;28;20041;-63
2022/07/29 09:15:11;;;;;;;4.03;1.20;;;;;;;31.67;34.29;100454.16;5050632;28;20365;-63
2022/07/29 09:17:46;;;;;;;3.63;1.00;;;;;;;31.99;34.54;100450.06;5031663;28;20115;-63
2022/07/29 09:20:18;;;;;;;5.20;1.30;;;;;;;32.42;33.46;100453.59;5050874;28;20033;-64
2022/07/29 09:22:46;;;;;;;1.90;1.23;;;;;;;32.35;33.98;100445.06;5042783;28;20043;-65
2022/07/29 09:25:12;;;;;;;5.65;1.27;;;;;;;32.42;33.81;100448.22;5042290;28;20407;-63
2022/07/29 09:27:38;;;;;;;1.65;1.33;;;;;;;32.35;33.13;100438.88;5049320;28;20075;-64
2022/07/29 09:30:07;;;;;;;5.82;2.40;;;;;;;32.21;33.29;100449.50;5045687;28;20071;-63
2022/07/29 09:32:56;;;;;;;2.55;2.10;;;;;;;31.85;32.51;100444.56;5050851;28;20037;-63
2022/07/29 09:35:24;;;;;;;2.70;2.17;;;;;;;31.76;33.37;100432.78;5049218;28;20416;-62
2022/07/29 09:37:50;;;;;;;2.95;2.03;;;;;;;31.80;32.88;100433.84;5047890;28;20405;-63
2022/07/29 09:40:23;;;;;;;3.00;1.98;;;;;;;31.71;32.68;100432.03;5050954;28;20115;-62
2022/07/29 09:42:50;;;;;;;3.13;1.92;;;;;;;31.95;33.15;100428.28;5049066;28;20389;-62
2022/07/29 09:45:37;;;;;;;4.43;2.35;;;;;;;32.46;31.94;100427.66;5048676;28;20599;-62
2022/07/29 09:48:15;;;;;;;2.78;1.65;;;;;;;32.75;31.84;100440.19;5050290;28;20036;-62
2022/07/29 09:50:43;;;;;;;2.08;1.70;;;;;;;32.92;32.35;100432.41;5049756;28;20355;-63
2022/07/29 09:53:09;;;;;;;3.40;1.63;;;;;;;32.67;32.68;100437.06;5050019;28;20411;-63
2022/07/29 09:55:51;;;;;;;2.55;1.60;;;;;;;32.53;32.71;100435.41;5049008;28;20447;-62
2022/07/29 09:58:19;;;;;;;7.75;1.67;;;;;;;32.53;33.36;100427.31;5043388;28;20036;-63
2022/07/29 10:00:46;;;;;;;3.25;1.52;;;;;;;32.54;33.44;100429.72;5048844;28;20025;-62
2022/07/29 10:03:13;;;;;;;4.03;1.45;;;;;;;32.71;33.36;100422.97;5049466;28;20033;-63
2022/07/29 10:05:39;;;;;;;2.67;1.13;;;;;;;32.24;33.17;100428.22;5049277;28;20037;-62
2022/07/29 10:08:05;;;;;;;2.78;1.38;;;;;;;32.27;33.63;100421.44;5042394;28;20098;-62
2022/07/29 10:10:33;;;;;;;5.93;1.73;;;;;;;32.12;33.98;100427.00;5047495;28;20060;-62
2022/07/29 10:13:01;;;;;;;2.13;1.38;;;;;;;32.14;33.09;100422.91;5048650;28;20079;-62
2022/07/29 10:15:29;;;;;;;2.92;1.60;;;;;;;32.23;33.61;100415.03;5047796;28;20043;-61
2022/07/29 10:17:56;;;;;;;2.80;1.67;;;;;;;32.37;32.78;100418.63;5029807;28;20551;-61
2022/07/29 10:20:23;;;;;;;2.50;1.73;;;;;;;31.85;33.28;100411.44;5049346;28;20106;-61
2022/07/29 10:22:50;;;;;;;2.10;1.60;;;;;;;31.72;33.18;100421.00;5049085;28;20219;-61
2022/07/29 10:25:17;;;;;;;2.35;1.67;;;;;;;31.96;33.47;100405.63;5048885;28;20165;-61
2022/07/29 10:27:45;;;;;;;5.13;2.17;;;;;;;32.33;33.73;100409.50;5049175;28;20021;-61
2022/07/29 10:30:12;;;;;;;2.30;1.95;;;;;;;32.45;33.04;100412.56;5048616;28;20024;-61
2022/07/29 10:32:50;;;;;;;3.13;2.05;;;;;;;32.07;32.84;100419.78;5049147;28;20031;-61
2022/07/29 10:35:35;;;;;;;2.53;2.22;;;;;;;31.45;34.21;100412.63;5047873;28;20131;-61
2022/07/29 10:38:15;;;;;;;2.22;2.03;;;;;;;31.51;33.41;100415.00;5048871;28;20041;-61
2022/07/29 10:43:38;;;;;;;4.93;2.45;;;;;;;31.84;34.38;100410.63;5048814;28;20110;-61
2022/07/29 10:46:05;;;;;;;6.45;2.70;;;;;;;32.08;33.99;100412.50;5048934;28;20021;-61
2022/07/29 10:48:30;;;;;;;6.57;2.97;;;;;;;32.38;33.45;100397.84;5043822;28;20056;-61
2022/07/29 10:51:04;;;;;;;4.82;2.22;;;;;;;32.58;33.50;100402.97;5044573;28;20388;-60
2022/07/29 10:53:52;;;;;;;3.50;2.50;;;;;;;32.52;34.49;100404.94;5043615;28;20037;-61
2022/07/29 10:56:35;;;;;;;3.47;2.30;;;;;;;32.17;35.31;100398.09;5030670;28;20119;-60
2022/07/29 10:59:19;;;;;;;2.20;1.73;;;;;;;32.34;34.42;100389.53;5031556;28;20029;-60
2022/07/29 11:01:47;;;;;;;3.33;1.63;;;;;;;32.53;33.30;100395.75;5040566;28;20040;-62
2022/07/29 11:04:13;;;;;;;4.03;1.33;;;;;;;32.03;34.22;100393.72;5047014;28;20500;-62
2022/07/29 11:07:08;;;;;;;2.88;1.80;;;;;;;32.01;33.97;100399.38;5045522;28;20029;-63
2022/07/29 11:09:33;;;;;;;2.92;1.80;;;;;;;32.17;34.43;100402.66;5040023;28;20370;-63
2022/07/29 11:11:59;;;;;;;2.33;1.63;;;;;;;32.15;33.71;100389.47;5047604;28;20132;-63
2022/07/29 11:14:53;;;;;;;2.17;1.73;;;;;;;32.18;35.32;100394.28;5049846;28;20029;-64
2022/07/29 11:17:18;;;;;;;4.25;1.30;;;;;;;32.46;34.30;100389.91;5041339;28;20156;-64
2022/07/29 11:19:44;;;;;;;2.08;1.85;;;;;;;32.48;33.95;100393.13;5042591;28;20497;-63
2022/07/29 11:22:11;;;;;;;5.13;1.70;;;;;;;32.23;34.06;100382.69;5044519;28;20032;-64
2022/07/29 11:24:37;;;;;;;6.40;1.98;;;;;;;31.83;34.39;100392.06;5039734;28;20497;-61
2022/07/29 11:27:10;;;;;;;2.85;1.90;;;;;;;31.62;35.05;100384.19;5041142;28;20031;-62
2022/07/29 11:29:47;;;;;;;1.55;1.45;;;;;;;31.75;35.29;100377.31;5040636;28;20642;-61
2022/07/29 11:32:15;;;;;;;2.45;2.13;;;;;;;32.03;34.99;100377.53;5046149;28;20040;-61
2022/07/29 11:34:42;;;;;;;7.13;1.58;;;;;;;32.16;34.54;100374.91;5039986;28;20036;-62
2022/07/29 11:39:33;;;;;;;2.95;1.88;;;;;;;31.85;35.46;100374.50;5048205;28;20033;-62